Time;durP1;ratioP1;P1;durP2;ratioP2;P2;SDS_P1;SDS_P2;PMS_P1;PMS_P2;Temp;Humidity;BMP_temperature;BMP_pressure;BME280_temperature;BME280_humidity;BME280_pressure;Samples;Min_cycle;Max_cycle;Signal;HPM_P1;HPM_P2
2022/02/13 10:12:02;;;;;;;15.43;14.13;;;9.10;99.30;;;;;;5128268;27;20527;-74
2022/02/13 10:14:30;;;;;;;15.87;14.73;;;10.40;96.60;;;;;;5128099;27;20531;-75
2022/02/13 10:16:59;;;;;;;16.50;15.20;;;10.70;95.70;;;;;;5128109;27;20473;-74
2022/02/13 10:19:26;;;;;;;16.57;15.20;;;10.60;95.90;;;;;;5127736;27;20540;-74
2022/02/13 10:21:55;;;;;;;16.30;14.93;;;11.00;95.50;;;;;;5127874;27;20841;-75
2022/02/13 10:24:24;;;;;;;16.27;15.20;;;11.20;94.40;;;;;;5127503;27;20716;-74
2022/02/13 10:27:07;;;;;;;16.03;14.83;;;11.50;93.90;;;;;;5127577;27;20853;-74
2022/02/13 10:29:35;;;;;;;16.17;15.07;;;11.60;93.50;;;;;;5127557;27;20544;-74
2022/02/13 10:32:17;;;;;;;16.33;14.93;;;11.80;93.20;;;;;;5127639;27;20565;-75
2022/02/13 10:35:03;;;;;;;16.60;15.27;;;12.20;92.30;;;;;;5127785;27;20452;-75
2022/02/13 10:37:41;;;;;;;15.53;14.33;;;12.20;91.80;;;;;;5127713;27;20552;-74
2022/02/13 10:40:10;;;;;;;15.63;14.53;;;12.10;91.90;;;;;;5127137;27;20990;-73
2022/02/13 10:42:38;;;;;;;16.00;14.90;;;11.70;92.30;;;;;;5127355;27;20517;-73
2022/02/13 10:45:23;;;;;;;16.53;15.30;;;11.60;92.30;;;;;;5127445;27;20478;-74
2022/02/13 10:47:51;;;;;;;15.17;14.13;;;11.70;92.70;;;;;;5127529;27;20452;-76
2022/02/13 10:50:19;;;;;;;17.73;15.90;;;11.80;92.50;;;;;;5127579;27;20452;-75
2022/02/13 10:52:47;;;;;;;15.77;14.47;;;11.70;92.20;;;;;;5127912;27;20445;-74
2022/02/13 10:55:14;;;;;;;16.63;15.03;;;11.80;92.50;;;;;;5129883;27;20452;-74
2022/02/13 10:57:43;;;;;;;16.90;15.43;;;12.20;91.70;;;;;;5136520;27;20448;-75
2022/02/13 11:00:11;;;;;;;15.37;14.30;;;12.30;91.40;;;;;;5134205;27;20484;-76
2022/02/13 11:02:39;;;;;;;15.03;13.80;;;12.30;91.20;;;;;;5133347;27;20877;-75
2022/02/13 11:05:07;;;;;;;16.33;14.80;;;12.40;91.10;;;;;;5132752;27;20471;-75
2022/02/13 11:07:35;;;;;;;17.13;15.47;;;12.70;90.80;;;;;;5130957;27;20497;-75
2022/02/13 11:10:04;;;;;;;17.53;16.00;;;12.90;90.30;;;;;;5127041;27;20479;-74
2022/02/13 11:12:31;;;;;;;15.93;14.73;;;13.20;90.00;;;;;;5115779;27;20453;-75
2022/02/13 11:15:18;;;;;;;15.27;14.17;;;13.30;89.30;;;;;;5113205;28;20498;-74
2022/02/13 11:17:46;;;;;;;17.13;15.93;;;13.20;88.80;;;;;;5113216;28;20506;-75
2022/02/13 11:20:14;;;;;;;15.37;14.17;;;13.30;88.50;;;;;;5113072;28;20434;-74
2022/02/13 11:22:42;;;;;;;15.07;13.73;;;13.30;88.80;;;;;;5112816;28;20475;-74
2022/02/13 11:25:10;;;;;;;15.70;14.20;;;13.40;87.90;;;;;;5112975;28;20481;-75
2022/02/13 11:27:52;;;;;;;15.13;14.20;;;13.40;87.50;;;;;;5112634;28;20498;-74
2022/02/13 11:30:41;;;;;;;14.03;12.83;;;13.70;86.90;;;;;;5112529;28;20481;-74
2022/02/13 11:33:10;;;;;;;16.17;14.70;;;13.70;86.00;;;;;;5112493;28;20546;-74
2022/02/13 11:35:54;;;;;;;14.67;13.80;;;14.00;85.60;;;;;;5112362;27;20469;-74
2022/02/13 11:38:55;;;;;;;15.57;14.43;;;14.10;84.20;;;;;;5112434;28;20450;-74
2022/02/13 11:42:09;;;;;;;15.80;14.70;;;14.30;83.40;;;;;;5112537;28;20449;-75
2022/02/13 11:44:48;;;;;;;14.43;13.40;;;14.00;83.80;;;;;;5112223;28;20452;-75
2022/02/13 11:47:21;;;;;;;16.47;14.87;;;14.30;83.30;;;;;;5112412;28;20453;-75
2022/02/13 11:50:27;;;;;;;14.77;13.60;;;14.40;82.70;;;;;;5112449;28;20449;-74
2022/02/13 11:53:02;;;;;;;16.73;13.67;;;14.50;82.80;;;;;;5112320;28;20844;-75
2022/02/13 11:55:32;;;;;;;16.67;14.30;;;14.50;81.80;;;;;;5112531;27;20943;-74
2022/02/13 11:58:00;;;;;;;14.50;13.60;;;14.60;81.80;;;;;;5112704;28;20460;-74
2022/02/13 12:00:39;;;;;;;16.57;15.07;;;14.80;80.40;;;;;;5112254;28;20433;-75
2022/02/13 12:03:22;;;;;;;14.47;13.33;;;15.10;80.30;;;;;;5111788;27;20538;-76
2022/02/13 12:06:28;;;;;;;15.17;13.53;;;15.60;77.80;;;;;;5112074;28;20940;-75
2022/02/13 12:08:57;;;;;;;15.30;14.20;;;16.00;76.80;;;;;;5102806;28;20457;-75
2022/02/13 12:11:30;;;;;;;14.10;13.20;;;16.40;74.70;;;;;;5111667;28;20492;-75
2022/02/13 12:13:58;;;;;;;15.00;13.80;;;16.20;74.00;;;;;;5111954;28;20449;-75
2022/02/13 12:16:26;;;;;;;15.60;14.30;;;16.00;73.60;;;;;;5111776;28;20536;-75
2022/02/13 12:18:54;;;;;;;13.93;13.03;;;16.40;74.10;;;;;;5111484;28;20438;-75
2022/02/13 12:21:27;;;;;;;14.63;13.63;;;16.80;71.40;;;;;;5111598;28;20489;-76
2022/02/13 12:24:02;;;;;;;14.23;13.13;;;16.90;70.60;;;;;;5110595;28;20445;-75
2022/02/13 12:26:30;;;;;;;13.77;12.73;;;16.40;71.00;;;;;;5111633;28;20532;-75
2022/02/13 12:28:57;;;;;;;13.77;12.87;;;16.40;71.30;;;;;;5111572;28;20453;-75
2022/02/13 12:31:24;;;;;;;14.17;13.07;;;16.00;70.30;;;;;;5111509;28;20874;-75
2022/02/13 12:33:54;;;;;;;12.47;11.70;;;16.20;70.20;;;;;;5111178;28;20453;-75
2022/02/13 12:36:25;;;;;;;14.10;13.00;;;15.70;71.20;;;;;;5111150;28;20460;-74
2022/02/13 12:38:56;;;;;;;13.83;12.63;;;15.80;71.50;;;;;;5111306;28;20532;-75
2022/02/13 12:41:25;;;;;;;12.73;11.83;;;15.80;72.00;;;;;;5111454;28;20909;-75
2022/02/13 12:43:53;;;;;;;12.03;11.33;;;15.90;70.90;;;;;;5111134;28;20868;-75
2022/02/13 12:46:20;;;;;;;13.73;12.63;;;15.70;71.50;;;;;;5110963;28;20463;-75
2022/02/13 12:48:47;;;;;;;14.07;12.90;;;15.40;71.60;;;;;;5111292;28;20539;-75
2022/02/13 12:51:26;;;;;;;12.93;11.93;;;15.70;71.50;;;;;;5111162;28;21082;-75
2022/02/13 12:53:56;;;;;;;13.07;12.17;;;15.90;70.70;;;;;;5111016;28;20449;-75
2022/02/13 12:56:25;;;;;;;15.83;14.63;;;15.70;70.40;;;;;;5110810;27;20506;-74
2022/02/13 12:58:52;;;;;;;14.47;13.00;;;15.90;70.20;;;;;;5110876;28;21070;-75
2022/02/13 13:01:30;;;;;;;11.43;10.73;;;15.70;69.00;;;;;;5110640;28;20524;-75
2022/02/13 13:03:57;;;;;;;12.80;11.73;;;15.60;68.00;;;;;;5110766;28;20451;-75
2022/02/13 13:06:29;;;;;;;11.50;10.50;;;16.00;67.30;;;;;;5110655;28;20458;-75
2022/02/13 13:08:58;;;;;;;11.07;10.40;;;16.00;65.10;;;;;;5110565;28;20454;-76
2022/02/13 13:11:31;;;;;;;12.57;11.47;;;15.90;64.80;;;;;;5110216;28;20489;-76
2022/02/13 13:14:08;;;;;;;11.60;10.80;;;15.40;64.60;;;;;;5110640;28;20484;-75
2022/02/13 13:16:35;;;;;;;12.00;11.30;;;15.20;65.10;;;;;;5110333;28;20526;-76
2022/02/13 13:19:02;;;;;;;11.60;10.80;;;15.40;65.10;;;;;;5110606;28;20449;-76
2022/02/13 13:21:43;;;;;;;11.40;10.80;;;15.60;64.70;;;;;;5110766;28;20445;-75
2022/02/13 13:24:12;;;;;;;11.90;11.10;;;15.40;64.40;;;;;;5110626;28;20449;-76
2022/02/13 13:26:40;;;;;;;11.40;10.80;;;15.00;65.00;;;;;;5110216;28;20964;-75
2022/02/13 13:29:24;;;;;;;11.60;10.67;;;14.70;65.70;;;;;;5110349;28;20622;-76
2022/02/13 13:32:05;;;;;;;11.47;10.67;;;14.40;65.40;;;;;;5110067;27;20489;-76
2022/02/13 13:34:33;;;;;;;11.70;11.00;;;14.00;65.80;;;;;;5110433;28;20456;-75
2022/02/13 13:37:30;;;;;;;11.40;10.80;;;13.60;66.50;;;;;;5110416;28;20441;-75
2022/02/13 13:40:06;;;;;;;11.23;10.53;;;13.20;68.40;;;;;;5109954;28;20489;-75
2022/02/13 13:42:35;;;;;;;10.63;9.93;;;13.20;69.00;;;;;;5110329;28;20449;-75
2022/02/13 13:45:08;;;;;;;10.80;10.20;;;13.10;68.90;;;;;;5110267;28;20453;-75
2022/02/13 13:47:35;;;;;;;10.53;9.83;;;13.10;69.90;;;;;;5109764;28;20449;-75
2022/02/13 13:50:03;;;;;;;10.57;9.97;;;13.10;70.00;;;;;;5110178;28;20453;-75
2022/02/13 13:52:31;;;;;;;10.57;9.97;;;13.10;69.70;;;;;;5109841;28;21004;-75
2022/02/13 13:54:57;;;;;;;10.50;9.90;;;13.20;70.10;;;;;;5109890;28;20967;-74
2022/02/13 13:57:24;;;;;;;12.07;11.27;;;13.20;70.00;;;;;;5109826;28;20457;-76
2022/02/13 13:59:51;;;;;;;10.90;10.30;;;13.20;71.00;;;;;;5109455;28;20997;-74
2022/02/13 14:02:20;;;;;;;11.23;10.60;;;13.20;71.50;;;;;;5109724;28;20849;-75
2022/02/13 14:04:47;;;;;;;12.37;11.40;;;13.20;72.20;;;;;;5109950;28;20488;-75
2022/02/13 14:07:14;;;;;;;12.77;11.63;;;13.20;72.00;;;;;;5110106;28;20506;-76
2022/02/13 14:09:42;;;;;;;11.90;10.83;;;13.10;72.30;;;;;;5109673;28;20450;-76
2022/02/13 14:12:12;;;;;;;11.77;10.87;;;13.10;72.60;;;;;;5109447;28;20492;-76
2022/02/13 14:14:39;;;;;;;11.87;11.00;;;13.00;72.10;;;;;;5109650;28;20987;-75
2022/02/13 14:17:05;;;;;;;11.17;10.23;;;13.00;72.40;;;;;;5109499;28;20457;-75
2022/02/13 14:19:32;;;;;;;11.80;11.03;;;12.90;72.10;;;;;;5109817;28;20453;-74
2022/02/13 14:21:59;;;;;;;10.50;9.80;;;12.90;72.50;;;;;;5109605;28;20445;-75
2022/02/13 14:24:26;;;;;;;10.97;10.20;;;12.90;72.70;;;;;;5109711;28;20449;-75
2022/02/13 14:26:54;;;;;;;12.60;11.60;;;12.90;72.50;;;;;;5109472;28;20445;-75
2022/02/13 14:29:21;;;;;;;10.43;9.87;;;12.90;72.90;;;;;;5109531;28;20773;-76
2022/02/13 14:31:48;;;;;;;10.97;10.30;;;12.90;72.60;;;;;;5109500;28;20476;-75
2022/02/13 14:34:16;;;;;;;11.50;10.90;;;12.90;72.50;;;;;;5109733;28;20533;-75
2022/02/13 14:36:44;;;;;;;11.47;10.30;;;12.90;72.90;;;;;;5109754;28;20457;-75
2022/02/13 14:39:11;;;;;;;11.90;11.00;;;12.90;72.60;;;;;;5109605;28;20979;-75
2022/02/13 14:41:37;;;;;;;10.33;9.83;;;12.90;72.70;;;;;;5109538;28;20532;-75
2022/02/13 14:44:07;;;;;;;10.87;9.93;;;12.90;72.30;;;;;;5109395;28;20485;-75
2022/02/13 14:46:34;;;;;;;10.10;9.57;;;12.90;72.40;;;;;;5110216;28;20539;-75
2022/02/13 14:49:01;;;;;;;10.53;9.90;;;12.90;72.50;;;;;;5113814;27;20457;-75
2022/02/13 14:51:28;;;;;;;10.93;9.80;;;12.90;71.90;;;;;;5113529;28;20480;-76
2022/02/13 14:53:55;;;;;;;10.53;9.83;;;12.90;71.20;;;;;;5113316;28;20506;-76
2022/02/13 14:56:21;;;;;;;9.37;8.83;;;12.90;71.30;;;;;;5113178;28;21152;-76
2022/02/13 14:58:48;;;;;;;10.73;10.03;;;12.90;71.20;;;;;;5113164;28;20449;-76
2022/02/13 15:01:16;;;;;;;10.73;10.13;;;12.90;70.20;;;;;;5113252;28;20441;-75
2022/02/13 15:03:43;;;;;;;11.23;10.37;;;12.90;70.80;;;;;;5113255;28;20457;-75
2022/02/13 15:06:10;;;;;;;10.50;10.00;;;12.90;71.10;;;;;;5112898;28;20455;-76
2022/02/13 15:08:37;;;;;;;11.40;10.50;;;12.90;70.80;;;;;;5112652;28;20453;-75
2022/02/13 15:11:04;;;;;;;10.60;9.93;;;12.90;70.00;;;;;;5112446;28;20493;-75
2022/02/13 15:13:32;;;;;;;10.60;9.83;;;13.00;69.50;;;;;;5113009;28;20852;-75
2022/02/13 15:15:59;;;;;;;10.03;9.27;;;12.90;69.40;;;;;;5112973;28;20445;-73
2022/02/13 15:18:27;;;;;;;9.57;8.97;;;12.90;69.20;;;;;;5112614;27;20518;-73
2022/02/13 15:20:54;;;;;;;10.87;10.17;;;12.90;69.50;;;;;;5112653;28;20581;-76
2022/02/13 15:23:22;;;;;;;10.70;10.00;;;12.90;69.10;;;;;;5112635;28;20450;-74
2022/02/13 15:25:49;;;;;;;10.23;9.70;;;12.80;69.90;;;;;;5112702;28;20441;-74
2022/02/13 15:28:17;;;;;;;11.20;10.30;;;12.80;69.70;;;;;;5112722;28;20457;-74
2022/02/13 15:30:44;;;;;;;9.70;9.20;;;12.80;70.60;;;;;;5112726;28;20449;-74
2022/02/13 15:33:11;;;;;;;10.10;9.60;;;12.70;71.00;;;;;;5112158;28;20484;-74
2022/02/13 15:35:40;;;;;;;10.47;9.87;;;12.70;71.50;;;;;;5112303;28;21095;-73
2022/02/13 15:38:06;;;;;;;9.87;9.30;;;12.70;71.60;;;;;;5112340;27;20456;-74
2022/02/13 15:40:33;;;;;;;11.23;10.40;;;12.60;72.00;;;;;;5112493;28;20456;-75
2022/02/13 15:43:00;;;;;;;9.60;9.00;;;12.60;72.70;;;;;;5112799;28;20811;-75
2022/02/13 15:45:27;;;;;;;10.53;9.97;;;12.50;72.90;;;;;;5111994;28;20828;-74
2022/02/13 15:47:54;;;;;;;10.80;10.20;;;12.40;72.10;;;;;;5112137;28;20522;-74
2022/02/13 15:50:20;;;;;;;11.27;10.37;;;12.40;72.20;;;;;;5112094;28;20793;-74
2022/02/13 15:52:50;;;;;;;10.73;10.13;;;12.30;72.10;;;;;;5112246;28;20898;-76
2022/02/13 15:55:17;;;;;;;10.00;9.40;;;12.30;72.30;;;;;;5112388;28;20517;-76
2022/02/13 15:57:45;;;;;;;10.70;10.10;;;12.20;72.70;;;;;;5112108;28;20502;-75
2022/02/13 16:00:13;;;;;;;9.70;9.20;;;12.10;72.90;;;;;;5112039;28;20454;-75
2022/02/13 16:02:40;;;;;;;10.90;10.17;;;12.00;72.90;;;;;;5111898;28;20475;-76
2022/02/13 16:05:07;;;;;;;10.77;10.07;;;12.00;73.10;;;;;;5111932;28;20996;-75
2022/02/13 16:07:33;;;;;;;10.27;9.63;;;11.90;73.40;;;;;;5111686;28;20553;-75
2022/02/13 16:10:02;;;;;;;9.90;9.30;;;11.80;74.10;;;;;;5111848;27;20476;-75
2022/02/13 16:12:28;;;;;;;10.37;9.73;;;11.70;73.50;;;;;;5111968;28;20488;-75
2022/02/13 16:14:55;;;;;;;9.67;8.97;;;11.60;74.30;;;;;;5111576;28;20441;-74
2022/02/13 16:17:22;;;;;;;10.60;10.00;;;11.50;74.70;;;;;;5111256;28;20522;-74
2022/02/13 16:19:49;;;;;;;11.17;10.57;;;11.40;75.60;;;;;;5111479;28;20452;-75
2022/02/13 16:22:16;;;;;;;10.33;9.40;;;11.30;76.10;;;;;;5111830;28;20445;-75
2022/02/13 16:24:42;;;;;;;11.30;10.57;;;11.20;77.30;;;;;;5111710;28;20963;-76
2022/02/13 16:27:11;;;;;;;12.67;11.77;;;11.00;76.50;;;;;;5111539;28;20940;-75
2022/02/13 16:29:38;;;;;;;9.77;9.20;;;11.00;77.00;;;;;;5111464;28;20455;-75
2022/02/13 16:32:06;;;;;;;10.17;9.50;;;10.90;77.70;;;;;;5111264;27;20513;-75
2022/02/13 16:34:35;;;;;;;11.03;10.33;;;10.80;78.60;;;;;;5111494;28;20449;-75
2022/02/13 16:37:03;;;;;;;11.47;10.67;;;10.70;79.70;;;;;;5111454;28;20441;-75
2022/02/13 16:39:30;;;;;;;11.60;10.67;;;10.60;81.00;;;;;;5111510;28;20457;-76
2022/02/13 16:41:58;;;;;;;9.80;9.00;;;10.40;82.10;;;;;;5111193;28;20493;-75
2022/02/13 16:44:26;;;;;;;10.80;10.20;;;10.30;83.30;;;;;;5111100;28;21069;-75
2022/02/13 16:46:53;;;;;;;13.23;12.23;;;10.10;84.40;;;;;;5111021;28;20452;-75
2022/02/13 16:49:20;;;;;;;11.80;10.80;;;10.00;86.30;;;;;;5111288;28;20824;-74
2022/02/13 16:51:47;;;;;;;12.63;11.53;;;9.80;88.50;;;;;;5111213;28;20487;-75
2022/02/13 16:54:14;;;;;;;10.90;10.20;;;9.70;89.10;;;;;;5111320;28;20449;-74
2022/02/13 16:56:42;;;;;;;11.97;11.23;;;9.70;89.30;;;;;;5111010;28;20507;-75
2022/02/13 16:59:09;;;;;;;10.13;9.63;;;9.70;89.40;;;;;;5111086;28;20857;-75
2022/02/13 17:01:37;;;;;;;11.20;10.57;;;9.60;89.00;;;;;;5110893;28;20457;-75
2022/02/13 17:04:06;;;;;;;10.87;10.20;;;9.50;88.70;;;;;;5111170;28;20454;-76
2022/02/13 17:06:34;;;;;;;11.40;10.60;;;9.50;88.20;;;;;;5110719;28;20937;-75
2022/02/13 17:09:02;;;;;;;10.03;9.33;;;9.40;88.50;;;;;;5110566;28;20955;-76
2022/02/13 17:11:28;;;;;;;11.17;10.37;;;9.30;89.00;;;;;;5110679;28;20492;-76
2022/02/13 17:13:55;;;;;;;11.57;10.67;;;9.20;89.50;;;;;;5110591;28;20523;-75
2022/02/13 17:16:22;;;;;;;12.97;11.97;;;9.20;89.10;;;;;;5110640;28;20502;-75
2022/02/13 17:18:50;;;;;;;11.90;11.03;;;9.10;88.50;;;;;;5110387;28;20484;-75
2022/02/13 17:21:17;;;;;;;11.80;11.00;;;9.10;88.30;;;;;;5110838;27;20452;-74
2022/02/13 17:23:45;;;;;;;11.77;10.77;;;9.00;88.70;;;;;;5110820;28;20436;-75
2022/02/13 17:26:13;;;;;;;12.00;11.10;;;9.00;88.40;;;;;;5110667;28;20510;-76
2022/02/13 17:28:39;;;;;;;11.67;10.90;;;9.00;87.30;;;;;;5110404;28;20449;-75
2022/02/13 17:31:07;;;;;;;12.10;11.30;;;9.00;87.40;;;;;;5110487;28;20827;-75
2022/02/13 17:33:35;;;;;;;12.03;11.07;;;8.80;87.80;;;;;;5110422;28;20485;-75
2022/02/13 17:36:04;;;;;;;12.07;11.23;;;8.70;88.00;;;;;;5110650;28;20441;-75
2022/02/13 17:38:31;;;;;;;11.33;10.63;;;8.70;88.90;;;;;;5110723;28;20446;-75
2022/02/13 17:40:58;;;;;;;13.20;11.90;;;8.60;89.40;;;;;;5110590;28;20449;-75
2022/02/13 17:43:25;;;;;;;13.83;12.90;;;8.60;90.10;;;;;;5110355;28;20860;-75
2022/02/13 17:45:53;;;;;;;11.90;11.10;;;8.50;90.20;;;;;;5110135;28;21127;-75
2022/02/13 17:48:20;;;;;;;12.70;11.50;;;8.40;90.50;;;;;;5110314;28;20456;-75
2022/02/13 17:50:47;;;;;;;14.03;12.73;;;8.40;90.90;;;;;;5110418;28;20532;-75
2022/02/13 17:53:15;;;;;;;13.33;12.23;;;8.20;91.10;;;;;;5110411;28;20484;-75
2022/02/13 17:55:42;;;;;;;14.50;12.60;;;8.20;91.50;;;;;;5110340;28;20961;-75
2022/02/13 17:58:10;;;;;;;13.47;12.37;;;8.20;91.60;;;;;;5110160;28;20728;-74
